Flight Track Log - Related Links

Times and Time Zones

All times are in EDT time to prevent confusion due to time zone crossing. See the N436RK flight status page for this flight to view local times or setup timezone preferences in your user account.

Time Position Orientation Groundspeed Altitude Reporting Facility
EDT Latitude Longitude Course Direction KTS MPH feet Rate Location/Type
Sun 01:04:57 PM 25.8694 -97.4497 230° Southwest 204 235 4,200  Level Houston Center
Sun 01:06:12 PM 25.8850 -97.5372 281° West 238 274 6,900 2,304 Climbing Houston Center
Sun 01:07:15 PM 25.9014 -97.6289 281° West 298 343 9,500 2,352 Climbing Houston Center
Sun 01:08:17 PM 25.9194 -97.7306 281° West 309 356 11,800 2,081 Climbing Houston Center
Sun 01:09:19 PM 25.9369 -97.8297 281° West 324 373 13,800 1,935 Climbing Houston Center
Sun 01:10:21 PM 25.9567 -97.9381 281° West 330 380 15,800 1,694 Climbing Houston Center
Sun 01:11:23 PM 25.9519 -98.0417 267° West 339 390 17,300 1,306 Climbing Houston Center
Sun 01:12:25 PM 25.9444 -98.1472 266° West 342 394 18,500 1,258 Climbing Houston Center
Sun 01:13:27 PM 25.9339 -98.2653 264° West 355 409 19,900 1,258 Climbing Houston Center
Sun 01:14:29 PM 25.9250 -98.3775 265° West 361 415 21,100 1,016 Climbing Houston Center
Sun 01:15:31 PM 25.9147 -98.4992 265° West 367 422 22,000 435 Climbing Houston Center
Sun 01:16:33 PM 25.9031 -98.6197 264° West 389 448 22,000  Level Houston Center
Sun 01:17:35 PM 25.8928 -98.7461 265° West 407 468 22,000  Level Houston Center
Sun 01:18:37 PM 25.8836 -98.8772 266° West 414 476 22,000  Level Houston Center
Sun 01:19:39 PM 25.8714 -99.0100 264° West 420 483 22,000  Level Houston Center
Sun 01:20:41 PM 25.8597 -99.1433 264° West 425 489 22,000 -629 Level Houston Center
Sun 01:21:43 PM 25.8489 -99.2750 265° West 427 491 20,700 -2,129 Descending Houston Center
Sun 01:22:45 PM 25.8383 -99.4075 265° West 429 494 17,600 -3,339 Descending Houston Center
Sun 01:23:47 PM 25.8578 -99.5531 278° West 411 473 13,800 -3,726 Descending Houston Center
Sun 01:24:49 PM 25.8814 -99.6656 283° West 393 452 9,900 -2,371 Descending Houston Center
Sun 01:25:51 PM 25.9047 -99.7597 285° West 366 421 8,900 -1,403 Descending Houston Center
Sun 01:26:53 PM 25.9242 -99.8378 285° West 325 374 7,000 -968 Descending Houston Center
Sun 01:27:55 PM 25.9422 -99.9022 287° West 281 323 6,900 -48 Descending Houston Center
Sun 01:28:57 PM 25.9592 -99.9539 290° West 237 273 6,900 -240 Level Houston Center
Sun 01:30:00 PM 25.9717 -100.0108 284° West 197 227 6,400 -672 Descending Houston Center
Sun 01:31:02 PM 25.9839 -100.0739 282° West 200 230 5,500 -871 Descending Houston Center

Login

Don't have an account? Register now (free) for customized features, flight alerts, and more!